sensor_id;sensor_type;location;lat;lon;timestamp;P1;durP1;ratioP1;P2;durP2;ratioP2
17145;SDS011;8688;54.444;18.444;2023-11-19T00:03:44;33.80;;;16.03;;
17145;SDS011;8688;54.444;18.444;2023-11-19T00:06:12;39.10;;;17.57;;
17145;SDS011;8688;54.444;18.444;2023-11-19T00:08:40;36.33;;;17.00;;
17145;SDS011;8688;54.444;18.444;2023-11-19T00:11:10;32.70;;;16.80;;
17145;SDS011;8688;54.444;18.444;2023-11-19T00:13:40;36.23;;;17.43;;
17145;SDS011;8688;54.444;18.444;2023-11-19T00:16:09;41.57;;;17.70;;
17145;SDS011;8688;54.444;18.444;2023-11-19T00:18:37;36.23;;;17.17;;
17145;SDS011;8688;54.444;18.444;2023-11-19T00:21:06;36.80;;;17.13;;
17145;SDS011;8688;54.444;18.444;2023-11-19T00:23:35;36.27;;;16.87;;
17145;SDS011;8688;54.444;18.444;2023-11-19T00:26:03;38.93;;;18.90;;
17145;SDS011;8688;54.444;18.444;2023-11-19T00:28:34;40.07;;;18.30;;
17145;SDS011;8688;54.444;18.444;2023-11-19T00:31:04;34.50;;;17.57;;
17145;SDS011;8688;54.444;18.444;2023-11-19T00:33:33;36.87;;;18.17;;
17145;SDS011;8688;54.444;18.444;2023-11-19T00:36:03;36.57;;;17.10;;
17145;SDS011;8688;54.444;18.444;2023-11-19T00:38:31;37.87;;;16.83;;
17145;SDS011;8688;54.444;18.444;2023-11-19T00:40:59;39.47;;;18.00;;
17145;SDS011;8688;54.444;18.444;2023-11-19T00:43:27;42.47;;;17.43;;
17145;SDS011;8688;54.444;18.444;2023-11-19T00:45:57;37.83;;;17.80;;
17145;SDS011;8688;54.444;18.444;2023-11-19T00:48:24;33.17;;;16.93;;
17145;SDS011;8688;54.444;18.444;2023-11-19T00:50:53;33.83;;;16.40;;
17145;SDS011;8688;54.444;18.444;2023-11-19T00:53:21;32.90;;;16.67;;
17145;SDS011;8688;54.444;18.444;2023-11-19T00:55:48;36.57;;;16.70;;
17145;SDS011;8688;54.444;18.444;2023-11-19T00:58:17;34.43;;;16.17;;
17145;SDS011;8688;54.444;18.444;2023-11-19T01:00:45;33.57;;;15.80;;
17145;SDS011;8688;54.444;18.444;2023-11-19T01:03:14;36.03;;;16.60;;
17145;SDS011;8688;54.444;18.444;2023-11-19T01:05:42;32.53;;;15.47;;
17145;SDS011;8688;54.444;18.444;2023-11-19T01:08:13;32.10;;;15.17;;
17145;SDS011;8688;54.444;18.444;2023-11-19T01:10:43;34.10;;;15.37;;
17145;SDS011;8688;54.444;18.444;2023-11-19T01:13:11;39.27;;;15.47;;
17145;SDS011;8688;54.444;18.444;2023-11-19T01:15:39;32.30;;;16.43;;
17145;SDS011;8688;54.444;18.444;2023-11-19T01:18:06;31.33;;;15.40;;
17145;SDS011;8688;54.444;18.444;2023-11-19T01:20:36;32.03;;;15.17;;
17145;SDS011;8688;54.444;18.444;2023-11-19T01:23:03;30.67;;;15.03;;
17145;SDS011;8688;54.444;18.444;2023-11-19T01:25:33;35.07;;;15.70;;
17145;SDS011;8688;54.444;18.444;2023-11-19T01:28:00;35.13;;;15.80;;
17145;SDS011;8688;54.444;18.444;2023-11-19T01:30:30;31.33;;;15.23;;
17145;SDS011;8688;54.444;18.444;2023-11-19T01:32:57;36.10;;;16.20;;
17145;SDS011;8688;54.444;18.444;2023-11-19T01:35:25;33.60;;;15.87;;
17145;SDS011;8688;54.444;18.444;2023-11-19T01:37:56;39.80;;;17.40;;
17145;SDS011;8688;54.444;18.444;2023-11-19T01:40:25;37.43;;;17.03;;
17145;SDS011;8688;54.444;18.444;2023-11-19T01:42:54;30.17;;;15.70;;
17145;SDS011;8688;54.444;18.444;2023-11-19T01:45:22;37.20;;;17.47;;
17145;SDS011;8688;54.444;18.444;2023-11-19T01:47:56;34.67;;;17.27;;
17145;SDS011;8688;54.444;18.444;2023-11-19T01:50:25;32.03;;;15.20;;
17145;SDS011;8688;54.444;18.444;2023-11-19T01:52:58;37.43;;;16.17;;
17145;SDS011;8688;54.444;18.444;2023-11-19T01:55:26;34.80;;;16.83;;
17145;SDS011;8688;54.444;18.444;2023-11-19T01:57:55;37.33;;;17.47;;
17145;SDS011;8688;54.444;18.444;2023-11-19T02:00:27;35.40;;;17.03;;
17145;SDS011;8688;54.444;18.444;2023-11-19T02:02:55;37.23;;;16.57;;
17145;SDS011;8688;54.444;18.444;2023-11-19T02:05:23;29.57;;;13.53;;
17145;SDS011;8688;54.444;18.444;2023-11-19T02:07:52;36.27;;;16.87;;
17145;SDS011;8688;54.444;18.444;2023-11-19T02:10:21;37.57;;;17.43;;
17145;SDS011;8688;54.444;18.444;2023-11-19T02:12:50;30.43;;;14.70;;
17145;SDS011;8688;54.444;18.444;2023-11-19T02:15:19;29.60;;;14.77;;
17145;SDS011;8688;54.444;18.444;2023-11-19T02:17:49;30.33;;;15.20;;
17145;SDS011;8688;54.444;18.444;2023-11-19T02:20:18;31.63;;;14.07;;
17145;SDS011;8688;54.444;18.444;2023-11-19T02:22:46;31.60;;;14.30;;
17145;SDS011;8688;54.444;18.444;2023-11-19T02:25:17;25.50;;;13.60;;
17145;SDS011;8688;54.444;18.444;2023-11-19T02:27:54;29.90;;;13.80;;
17145;SDS011;8688;54.444;18.444;2023-11-19T02:30:25;28.83;;;12.63;;
17145;SDS011;8688;54.444;18.444;2023-11-19T02:32:54;28.57;;;13.30;;
17145;SDS011;8688;54.444;18.444;2023-11-19T02:35:23;25.67;;;12.00;;
17145;SDS011;8688;54.444;18.444;2023-11-19T02:37:51;25.80;;;13.00;;
17145;SDS011;8688;54.444;18.444;2023-11-19T02:40:19;25.53;;;12.67;;
17145;SDS011;8688;54.444;18.444;2023-11-19T02:42:49;24.03;;;11.83;;
17145;SDS011;8688;54.444;18.444;2023-11-19T02:45:19;25.30;;;12.10;;
17145;SDS011;8688;54.444;18.444;2023-11-19T02:47:49;23.97;;;12.40;;
17145;SDS011;8688;54.444;18.444;2023-11-19T02:50:18;25.77;;;11.63;;
17145;SDS011;8688;54.444;18.444;2023-11-19T02:52:51;21.83;;;11.30;;
17145;SDS011;8688;54.444;18.444;2023-11-19T02:55:20;22.73;;;10.77;;
17145;SDS011;8688;54.444;18.444;2023-11-19T02:57:51;22.30;;;10.23;;
17145;SDS011;8688;54.444;18.444;2023-11-19T03:00:23;21.73;;;10.27;;
17145;SDS011;8688;54.444;18.444;2023-11-19T03:02:57;22.17;;;10.87;;
17145;SDS011;8688;54.444;18.444;2023-11-19T03:05:30;21.90;;;10.47;;
17145;SDS011;8688;54.444;18.444;2023-11-19T03:07:58;18.47;;;10.00;;
17145;SDS011;8688;54.444;18.444;2023-11-19T03:10:26;20.03;;;10.00;;
17145;SDS011;8688;54.444;18.444;2023-11-19T03:12:55;20.93;;;9.83;;
17145;SDS011;8688;54.444;18.444;2023-11-19T03:15:26;20.87;;;10.20;;
17145;SDS011;8688;54.444;18.444;2023-11-19T03:17:54;19.67;;;9.77;;
17145;SDS011;8688;54.444;18.444;2023-11-19T03:20:22;17.93;;;9.63;;
17145;SDS011;8688;54.444;18.444;2023-11-19T03:22:53;18.60;;;9.90;;
17145;SDS011;8688;54.444;18.444;2023-11-19T03:25:27;17.63;;;9.77;;
17145;SDS011;8688;54.444;18.444;2023-11-19T03:28:01;18.00;;;9.97;;
17145;SDS011;8688;54.444;18.444;2023-11-19T03:30:32;18.93;;;10.33;;
17145;SDS011;8688;54.444;18.444;2023-11-19T03:33:00;21.10;;;10.07;;
17145;SDS011;8688;54.444;18.444;2023-11-19T03:35:29;16.50;;;8.83;;
17145;SDS011;8688;54.444;18.444;2023-11-19T03:37:58;18.47;;;9.10;;
17145;SDS011;8688;54.444;18.444;2023-11-19T03:40:28;16.63;;;9.20;;
17145;SDS011;8688;54.444;18.444;2023-11-19T03:42:56;18.20;;;9.33;;
17145;SDS011;8688;54.444;18.444;2023-11-19T03:45:24;17.30;;;9.30;;
17145;SDS011;8688;54.444;18.444;2023-11-19T03:47:53;22.23;;;10.20;;
17145;SDS011;8688;54.444;18.444;2023-11-19T03:50:22;19.20;;;9.70;;
17145;SDS011;8688;54.444;18.444;2023-11-19T03:52:50;21.37;;;9.43;;
17145;SDS011;8688;54.444;18.444;2023-11-19T03:55:19;20.00;;;10.60;;
17145;SDS011;8688;54.444;18.444;2023-11-19T03:57:47;24.20;;;11.80;;
17145;SDS011;8688;54.444;18.444;2023-11-19T04:00:17;21.23;;;10.73;;
17145;SDS011;8688;54.444;18.444;2023-11-19T04:02:46;25.03;;;11.53;;
17145;SDS011;8688;54.444;18.444;2023-11-19T04:05:16;23.53;;;11.80;;
17145;SDS011;8688;54.444;18.444;2023-11-19T04:07:44;27.10;;;11.50;;
17145;SDS011;8688;54.444;18.444;2023-11-19T04:10:12;23.37;;;11.97;;
17145;SDS011;8688;54.444;18.444;2023-11-19T04:12:41;23.53;;;11.90;;
17145;SDS011;8688;54.444;18.444;2023-11-19T04:15:10;24.60;;;12.00;;
17145;SDS011;8688;54.444;18.444;2023-11-19T04:17:38;26.83;;;12.00;;
17145;SDS011;8688;54.444;18.444;2023-11-19T04:20:07;21.60;;;10.93;;
17145;SDS011;8688;54.444;18.444;2023-11-19T04:22:40;24.03;;;11.13;;
17145;SDS011;8688;54.444;18.444;2023-11-19T04:25:10;25.17;;;11.93;;
17145;SDS011;8688;54.444;18.444;2023-11-19T04:27:39;22.20;;;11.27;;
17145;SDS011;8688;54.444;18.444;2023-11-19T04:30:07;25.53;;;12.27;;
17145;SDS011;8688;54.444;18.444;2023-11-19T04:32:36;23.07;;;11.20;;
17145;SDS011;8688;54.444;18.444;2023-11-19T04:35:05;25.93;;;12.60;;
17145;SDS011;8688;54.444;18.444;2023-11-19T04:37:34;25.13;;;12.37;;
17145;SDS011;8688;54.444;18.444;2023-11-19T04:40:04;26.13;;;12.97;;
17145;SDS011;8688;54.444;18.444;2023-11-19T04:42:33;28.00;;;12.73;;
17145;SDS011;8688;54.444;18.444;2023-11-19T04:45:01;24.20;;;12.53;;
17145;SDS011;8688;54.444;18.444;2023-11-19T04:47:31;25.90;;;12.03;;
17145;SDS011;8688;54.444;18.444;2023-11-19T04:49:59;24.83;;;11.63;;
17145;SDS011;8688;54.444;18.444;2023-11-19T04:52:29;24.53;;;11.27;;
17145;SDS011;8688;54.444;18.444;2023-11-19T04:54:57;22.10;;;11.90;;
17145;SDS011;8688;54.444;18.444;2023-11-19T04:57:26;24.20;;;11.60;;
17145;SDS011;8688;54.444;18.444;2023-11-19T04:59:54;20.43;;;10.93;;
17145;SDS011;8688;54.444;18.444;2023-11-19T05:02:23;21.27;;;10.93;;
17145;SDS011;8688;54.444;18.444;2023-11-19T05:04:51;21.97;;;11.90;;
17145;SDS011;8688;54.444;18.444;2023-11-19T05:07:19;20.27;;;10.67;;
17145;SDS011;8688;54.444;18.444;2023-11-19T05:09:48;23.83;;;11.47;;
17145;SDS011;8688;54.444;18.444;2023-11-19T05:12:16;21.57;;;10.50;;
17145;SDS011;8688;54.444;18.444;2023-11-19T05:14:45;25.27;;;11.33;;
17145;SDS011;8688;54.444;18.444;2023-11-19T05:17:15;21.80;;;10.93;;
17145;SDS011;8688;54.444;18.444;2023-11-19T05:19:44;23.80;;;11.17;;
17145;SDS011;8688;54.444;18.444;2023-11-19T05:22:13;21.67;;;11.27;;
17145;SDS011;8688;54.444;18.444;2023-11-19T05:24:40;21.40;;;10.57;;
17145;SDS011;8688;54.444;18.444;2023-11-19T05:27:08;24.67;;;10.30;;
17145;SDS011;8688;54.444;18.444;2023-11-19T05:29:36;18.63;;;9.43;;
17145;SDS011;8688;54.444;18.444;2023-11-19T05:32:08;17.17;;;8.97;;
17145;SDS011;8688;54.444;18.444;2023-11-19T05:34:35;21.33;;;9.93;;
17145;SDS011;8688;54.444;18.444;2023-11-19T05:37:04;17.90;;;9.63;;
17145;SDS011;8688;54.444;18.444;2023-11-19T05:39:32;22.40;;;9.93;;
17145;SDS011;8688;54.444;18.444;2023-11-19T05:42:00;18.83;;;10.20;;
17145;SDS011;8688;54.444;18.444;2023-11-19T05:44:27;22.97;;;10.23;;
17145;SDS011;8688;54.444;18.444;2023-11-19T05:46:56;20.77;;;10.00;;
17145;SDS011;8688;54.444;18.444;2023-11-19T05:49:26;17.97;;;9.70;;
17145;SDS011;8688;54.444;18.444;2023-11-19T05:51:54;23.27;;;10.60;;
17145;SDS011;8688;54.444;18.444;2023-11-19T05:54:22;22.93;;;9.73;;
17145;SDS011;8688;54.444;18.444;2023-11-19T05:56:50;22.10;;;10.27;;
17145;SDS011;8688;54.444;18.444;2023-11-19T05:59:20;20.97;;;9.90;;
17145;SDS011;8688;54.444;18.444;2023-11-19T06:01:48;19.53;;;10.27;;
17145;SDS011;8688;54.444;18.444;2023-11-19T06:04:16;20.37;;;10.10;;
17145;SDS011;8688;54.444;18.444;2023-11-19T06:06:45;20.87;;;11.00;;
17145;SDS011;8688;54.444;18.444;2023-11-19T06:09:13;23.50;;;10.73;;
17145;SDS011;8688;54.444;18.444;2023-11-19T06:11:43;21.27;;;10.90;;
17145;SDS011;8688;54.444;18.444;2023-11-19T06:14:12;21.57;;;10.03;;
17145;SDS011;8688;54.444;18.444;2023-11-19T06:16:39;23.13;;;11.00;;
17145;SDS011;8688;54.444;18.444;2023-11-19T06:19:09;21.57;;;9.87;;
17145;SDS011;8688;54.444;18.444;2023-11-19T06:21:37;22.33;;;10.93;;
17145;SDS011;8688;54.444;18.444;2023-11-19T06:24:07;21.13;;;10.27;;
17145;SDS011;8688;54.444;18.444;2023-11-19T06:26:35;22.80;;;10.43;;
17145;SDS011;8688;54.444;18.444;2023-11-19T06:29:03;22.90;;;11.27;;
17145;SDS011;8688;54.444;18.444;2023-11-19T06:31:31;24.83;;;10.77;;
17145;SDS011;8688;54.444;18.444;2023-11-19T06:33:59;17.53;;;9.77;;
17145;SDS011;8688;54.444;18.444;2023-11-19T06:36:27;24.27;;;10.33;;
17145;SDS011;8688;54.444;18.444;2023-11-19T06:38:56;23.13;;;11.23;;
17145;SDS011;8688;54.444;18.444;2023-11-19T06:41:25;27.40;;;11.63;;
17145;SDS011;8688;54.444;18.444;2023-11-19T06:43:54;19.83;;;10.00;;
17145;SDS011;8688;54.444;18.444;2023-11-19T06:46:22;21.47;;;9.70;;
17145;SDS011;8688;54.444;18.444;2023-11-19T06:48:50;20.07;;;9.80;;
17145;SDS011;8688;54.444;18.444;2023-11-19T06:51:19;21.70;;;10.03;;
17145;SDS011;8688;54.444;18.444;2023-11-19T06:53:49;17.83;;;9.47;;
17145;SDS011;8688;54.444;18.444;2023-11-19T06:56:20;19.93;;;9.10;;
17145;SDS011;8688;54.444;18.444;2023-11-19T06:58:51;19.67;;;9.77;;
17145;SDS011;8688;54.444;18.444;2023-11-19T07:01:18;20.40;;;9.63;;
17145;SDS011;8688;54.444;18.444;2023-11-19T07:03:47;25.13;;;11.10;;
17145;SDS011;8688;54.444;18.444;2023-11-19T07:06:16;19.73;;;9.53;;
17145;SDS011;8688;54.444;18.444;2023-11-19T07:08:44;22.60;;;10.43;;
17145;SDS011;8688;54.444;18.444;2023-11-19T07:11:12;20.37;;;10.30;;
17145;SDS011;8688;54.444;18.444;2023-11-19T07:13:42;22.50;;;10.83;;
17145;SDS011;8688;54.444;18.444;2023-11-19T07:16:15;21.47;;;10.40;;
17145;SDS011;8688;54.444;18.444;2023-11-19T07:18:43;21.13;;;9.80;;
17145;SDS011;8688;54.444;18.444;2023-11-19T07:21:11;21.13;;;10.50;;
17145;SDS011;8688;54.444;18.444;2023-11-19T07:23:40;22.47;;;10.30;;
17145;SDS011;8688;54.444;18.444;2023-11-19T07:26:08;18.43;;;9.90;;
17145;SDS011;8688;54.444;18.444;2023-11-19T07:28:36;18.30;;;10.33;;
17145;SDS011;8688;54.444;18.444;2023-11-19T07:31:05;58.70;;;21.70;;
17145;SDS011;8688;54.444;18.444;2023-11-19T07:33:35;39.93;;;18.63;;
17145;SDS011;8688;54.444;18.444;2023-11-19T07:36:03;27.43;;;14.80;;
17145;SDS011;8688;54.444;18.444;2023-11-19T07:38:34;21.30;;;11.40;;
17145;SDS011;8688;54.444;18.444;2023-11-19T07:41:03;23.87;;;11.23;;
17145;SDS011;8688;54.444;18.444;2023-11-19T07:43:34;24.20;;;12.20;;
17145;SDS011;8688;54.444;18.444;2023-11-19T07:46:02;26.50;;;12.37;;
17145;SDS011;8688;54.444;18.444;2023-11-19T07:48:29;23.77;;;11.40;;
17145;SDS011;8688;54.444;18.444;2023-11-19T07:50:59;21.90;;;10.47;;
17145;SDS011;8688;54.444;18.444;2023-11-19T07:53:27;25.63;;;14.03;;
17145;SDS011;8688;54.444;18.444;2023-11-19T07:55:55;27.30;;;13.33;;
17145;SDS011;8688;54.444;18.444;2023-11-19T07:58:25;28.83;;;13.10;;
17145;SDS011;8688;54.444;18.444;2023-11-19T08:00:52;24.97;;;13.07;;
17145;SDS011;8688;54.444;18.444;2023-11-19T08:03:20;24.20;;;12.33;;
17145;SDS011;8688;54.444;18.444;2023-11-19T08:05:48;25.37;;;12.23;;
17145;SDS011;8688;54.444;18.444;2023-11-19T08:08:18;21.60;;;11.97;;
17145;SDS011;8688;54.444;18.444;2023-11-19T08:10:49;24.10;;;11.87;;
17145;SDS011;8688;54.444;18.444;2023-11-19T08:13:18;21.63;;;11.70;;
17145;SDS011;8688;54.444;18.444;2023-11-19T08:15:46;19.50;;;10.73;;
17145;SDS011;8688;54.444;18.444;2023-11-19T08:18:13;21.30;;;11.87;;
17145;SDS011;8688;54.444;18.444;2023-11-19T08:20:42;20.30;;;10.90;;
17145;SDS011;8688;54.444;18.444;2023-11-19T08:23:11;20.10;;;10.83;;
17145;SDS011;8688;54.444;18.444;2023-11-19T08:25:40;23.53;;;12.00;;
17145;SDS011;8688;54.444;18.444;2023-11-19T08:28:08;27.23;;;12.73;;
17145;SDS011;8688;54.444;18.444;2023-11-19T08:30:36;29.23;;;12.67;;
17145;SDS011;8688;54.444;18.444;2023-11-19T08:33:03;22.37;;;12.00;;
17145;SDS011;8688;54.444;18.444;2023-11-19T08:35:32;24.57;;;12.67;;
17145;SDS011;8688;54.444;18.444;2023-11-19T08:38:00;23.43;;;12.27;;
17145;SDS011;8688;54.444;18.444;2023-11-19T08:40:28;20.70;;;11.13;;
17145;SDS011;8688;54.444;18.444;2023-11-19T08:42:58;23.67;;;12.77;;
17145;SDS011;8688;54.444;18.444;2023-11-19T08:45:26;25.03;;;12.20;;
17145;SDS011;8688;54.444;18.444;2023-11-19T08:47:54;22.37;;;11.60;;
17145;SDS011;8688;54.444;18.444;2023-11-19T08:50:21;24.10;;;12.57;;
17145;SDS011;8688;54.444;18.444;2023-11-19T08:52:49;22.33;;;11.90;;
17145;SDS011;8688;54.444;18.444;2023-11-19T08:55:18;23.27;;;11.73;;
17145;SDS011;8688;54.444;18.444;2023-11-19T08:57:45;20.20;;;10.97;;
17145;SDS011;8688;54.444;18.444;2023-11-19T09:00:15;24.80;;;11.50;;
17145;SDS011;8688;54.444;18.444;2023-11-19T09:02:43;25.53;;;11.43;;
17145;SDS011;8688;54.444;18.444;2023-11-19T09:05:12;25.67;;;11.90;;
17145;SDS011;8688;54.444;18.444;2023-11-19T09:07:39;24.43;;;12.93;;
17145;SDS011;8688;54.444;18.444;2023-11-19T09:10:08;23.83;;;12.60;;
17145;SDS011;8688;54.444;18.444;2023-11-19T09:12:38;22.20;;;12.10;;
17145;SDS011;8688;54.444;18.444;2023-11-19T09:15:06;19.57;;;10.53;;
17145;SDS011;8688;54.444;18.444;2023-11-19T09:17:37;20.27;;;11.03;;
17145;SDS011;8688;54.444;18.444;2023-11-19T09:20:07;21.20;;;10.97;;
17145;SDS011;8688;54.444;18.444;2023-11-19T09:22:40;22.30;;;11.10;;
17145;SDS011;8688;54.444;18.444;2023-11-19T09:25:09;21.37;;;11.13;;
17145;SDS011;8688;54.444;18.444;2023-11-19T09:27:37;22.97;;;12.03;;
17145;SDS011;8688;54.444;18.444;2023-11-19T09:30:06;16.43;;;9.67;;
17145;SDS011;8688;54.444;18.444;2023-11-19T09:32:34;19.97;;;11.03;;
17145;SDS011;8688;54.444;18.444;2023-11-19T09:35:05;20.03;;;10.90;;
17145;SDS011;8688;54.444;18.444;2023-11-19T09:37:34;22.20;;;11.87;;
17145;SDS011;8688;54.444;18.444;2023-11-19T09:40:04;22.57;;;12.27;;
17145;SDS011;8688;54.444;18.444;2023-11-19T09:42:38;20.03;;;10.60;;
17145;SDS011;8688;54.444;18.444;2023-11-19T09:45:12;16.80;;;9.83;;
17145;SDS011;8688;54.444;18.444;2023-11-19T09:47:44;20.03;;;10.07;;
17145;SDS011;8688;54.444;18.444;2023-11-19T09:50:15;24.70;;;11.50;;
17145;SDS011;8688;54.444;18.444;2023-11-19T09:52:45;20.97;;;11.53;;
17145;SDS011;8688;54.444;18.444;2023-11-19T09:55:14;22.37;;;11.90;;
17145;SDS011;8688;54.444;18.444;2023-11-19T09:57:43;21.17;;;11.50;;
17145;SDS011;8688;54.444;18.444;2023-11-19T10:00:12;26.47;;;14.07;;
17145;SDS011;8688;54.444;18.444;2023-11-19T10:02:44;27.37;;;14.10;;
17145;SDS011;8688;54.444;18.444;2023-11-19T10:05:13;26.43;;;13.00;;
17145;SDS011;8688;54.444;18.444;2023-11-19T10:07:42;29.77;;;13.27;;
17145;SDS011;8688;54.444;18.444;2023-11-19T10:10:11;23.63;;;12.43;;
17145;SDS011;8688;54.444;18.444;2023-11-19T10:12:43;27.10;;;13.37;;
17145;SDS011;8688;54.444;18.444;2023-11-19T10:15:17;24.93;;;12.43;;
17145;SDS011;8688;54.444;18.444;2023-11-19T10:17:51;23.47;;;12.37;;
17145;SDS011;8688;54.444;18.444;2023-11-19T10:20:23;27.90;;;12.87;;
17145;SDS011;8688;54.444;18.444;2023-11-19T10:22:54;28.37;;;15.37;;
17145;SDS011;8688;54.444;18.444;2023-11-19T10:25:24;26.63;;;13.77;;
17145;SDS011;8688;54.444;18.444;2023-11-19T10:27:52;27.03;;;15.37;;
17145;SDS011;8688;54.444;18.444;2023-11-19T10:30:21;28.53;;;14.57;;
17145;SDS011;8688;54.444;18.444;2023-11-19T10:33:06;25.40;;;13.87;;
17145;SDS011;8688;54.444;18.444;2023-11-19T10:35:36;26.77;;;14.50;;
17145;SDS011;8688;54.444;18.444;2023-11-19T10:38:18;27.97;;;14.67;;
17145;SDS011;8688;54.444;18.444;2023-11-19T10:40:47;24.67;;;13.17;;
17145;SDS011;8688;54.444;18.444;2023-11-19T10:43:16;29.77;;;14.40;;
17145;SDS011;8688;54.444;18.444;2023-11-19T10:45:44;27.60;;;14.83;;
17145;SDS011;8688;54.444;18.444;2023-11-19T10:48:14;31.30;;;15.10;;
17145;SDS011;8688;54.444;18.444;2023-11-19T10:50:43;29.23;;;14.47;;
17145;SDS011;8688;54.444;18.444;2023-11-19T10:53:13;31.50;;;14.70;;
17145;SDS011;8688;54.444;18.444;2023-11-19T10:55:42;28.40;;;13.57;;
17145;SDS011;8688;54.444;18.444;2023-11-19T10:58:17;31.70;;;16.17;;
17145;SDS011;8688;54.444;18.444;2023-11-19T11:00:54;30.27;;;14.63;;
17145;SDS011;8688;54.444;18.444;2023-11-19T11:03:29;31.73;;;15.47;;
17145;SDS011;8688;54.444;18.444;2023-11-19T11:06:03;30.73;;;14.67;;
17145;SDS011;8688;54.444;18.444;2023-11-19T11:08:31;28.90;;;14.97;;
17145;SDS011;8688;54.444;18.444;2023-11-19T11:11:03;32.03;;;15.10;;
17145;SDS011;8688;54.444;18.444;2023-11-19T11:13:35;33.10;;;14.77;;
17145;SDS011;8688;54.444;18.444;2023-11-19T11:16:06;35.30;;;15.70;;
17145;SDS011;8688;54.444;18.444;2023-11-19T11:18:38;33.83;;;16.10;;
17145;SDS011;8688;54.444;18.444;2023-11-19T11:21:09;44.30;;;18.53;;
17145;SDS011;8688;54.444;18.444;2023-11-19T11:29:27;35.47;;;17.07;;
17145;SDS011;8688;54.444;18.444;2023-11-19T11:32:04;39.27;;;18.40;;
17145;SDS011;8688;54.444;18.444;2023-11-19T11:34:53;34.90;;;17.80;;
17145;SDS011;8688;54.444;18.444;2023-11-19T11:37:45;42.50;;;20.27;;
17145;SDS011;8688;54.444;18.444;2023-11-19T11:40:18;37.73;;;19.50;;
17145;SDS011;8688;54.444;18.444;2023-11-19T11:42:45;41.97;;;22.40;;
17145;SDS011;8688;54.444;18.444;2023-11-19T11:45:14;44.43;;;21.80;;
17145;SDS011;8688;54.444;18.444;2023-11-19T11:50:51;37.00;;;17.47;;
17145;SDS011;8688;54.444;18.444;2023-11-19T11:53:20;35.40;;;17.97;;
17145;SDS011;8688;54.444;18.444;2023-11-19T11:55:56;43.37;;;19.37;;
17145;SDS011;8688;54.444;18.444;2023-11-19T11:58:30;34.27;;;16.80;;
17145;SDS011;8688;54.444;18.444;2023-11-19T12:01:00;38.40;;;17.23;;
17145;SDS011;8688;54.444;18.444;2023-11-19T12:03:31;30.27;;;14.17;;
17145;SDS011;8688;54.444;18.444;2023-11-19T12:06:07;39.27;;;18.13;;
17145;SDS011;8688;54.444;18.444;2023-11-19T12:08:35;39.13;;;17.57;;
17145;SDS011;8688;54.444;18.444;2023-11-19T12:11:03;38.60;;;17.00;;
17145;SDS011;8688;54.444;18.444;2023-11-19T12:13:46;38.97;;;17.57;;
17145;SDS011;8688;54.444;18.444;2023-11-19T12:16:24;39.23;;;17.67;;
17145;SDS011;8688;54.444;18.444;2023-11-19T12:18:53;40.23;;;17.93;;
17145;SDS011;8688;54.444;18.444;2023-11-19T12:21:29;38.67;;;18.80;;
17145;SDS011;8688;54.444;18.444;2023-11-19T12:23:58;39.93;;;16.93;;
17145;SDS011;8688;54.444;18.444;2023-11-19T12:26:38;40.00;;;17.80;;
17145;SDS011;8688;54.444;18.444;2023-11-19T12:29:08;38.20;;;18.03;;
17145;SDS011;8688;54.444;18.444;2023-11-19T12:31:37;40.77;;;17.50;;
17145;SDS011;8688;54.444;18.444;2023-11-19T12:34:12;40.10;;;18.47;;
17145;SDS011;8688;54.444;18.444;2023-11-19T12:36:41;43.43;;;19.60;;
17145;SDS011;8688;54.444;18.444;2023-11-19T12:39:10;43.30;;;19.90;;
17145;SDS011;8688;54.444;18.444;2023-11-19T12:41:49;47.00;;;19.63;;
17145;SDS011;8688;54.444;18.444;2023-11-19T12:44:22;42.00;;;19.07;;
17145;SDS011;8688;54.444;18.444;2023-11-19T12:46:59;42.93;;;18.57;;
17145;SDS011;8688;54.444;18.444;2023-11-19T12:49:29;44.10;;;19.43;;
17145;SDS011;8688;54.444;18.444;2023-11-19T12:51:59;43.37;;;20.37;;
17145;SDS011;8688;54.444;18.444;2023-11-19T12:54:33;44.27;;;21.17;;
17145;SDS011;8688;54.444;18.444;2023-11-19T12:57:02;43.47;;;19.77;;
17145;SDS011;8688;54.444;18.444;2023-11-19T12:59:30;61.23;;;26.70;;
17145;SDS011;8688;54.444;18.444;2023-11-19T13:01:58;60.80;;;28.07;;
17145;SDS011;8688;54.444;18.444;2023-11-19T13:04:27;61.30;;;25.90;;
17145;SDS011;8688;54.444;18.444;2023-11-19T13:06:56;52.67;;;23.93;;
17145;SDS011;8688;54.444;18.444;2023-11-19T13:09:27;50.17;;;22.23;;
17145;SDS011;8688;54.444;18.444;2023-11-19T13:11:56;45.23;;;20.83;;
17145;SDS011;8688;54.444;18.444;2023-11-19T13:14:35;46.00;;;20.83;;
17145;SDS011;8688;54.444;18.444;2023-11-19T13:17:04;48.90;;;20.40;;
17145;SDS011;8688;54.444;18.444;2023-11-19T13:19:32;48.03;;;21.10;;
17145;SDS011;8688;54.444;18.444;2023-11-19T13:22:03;49.17;;;22.13;;
17145;SDS011;8688;54.444;18.444;2023-11-19T13:24:32;48.63;;;20.40;;
17145;SDS011;8688;54.444;18.444;2023-11-19T13:27:01;51.27;;;22.00;;
17145;SDS011;8688;54.444;18.444;2023-11-19T13:29:30;47.50;;;20.03;;
17145;SDS011;8688;54.444;18.444;2023-11-19T13:31:59;48.73;;;21.00;;
17145;SDS011;8688;54.444;18.444;2023-11-19T13:34:29;44.80;;;20.47;;
17145;SDS011;8688;54.444;18.444;2023-11-19T13:36:58;49.63;;;22.33;;
17145;SDS011;8688;54.444;18.444;2023-11-19T13:39:29;49.33;;;20.00;;
17145;SDS011;8688;54.444;18.444;2023-11-19T13:41:57;49.97;;;20.63;;
17145;SDS011;8688;54.444;18.444;2023-11-19T13:44:27;48.43;;;20.90;;
17145;SDS011;8688;54.444;18.444;2023-11-19T13:46:56;49.80;;;21.57;;
17145;SDS011;8688;54.444;18.444;2023-11-19T13:49:25;50.10;;;21.00;;
17145;SDS011;8688;54.444;18.444;2023-11-19T13:51:55;46.63;;;20.43;;
17145;SDS011;8688;54.444;18.444;2023-11-19T13:54:24;49.13;;;22.37;;
17145;SDS011;8688;54.444;18.444;2023-11-19T13:56:56;51.63;;;22.17;;
17145;SDS011;8688;54.444;18.444;2023-11-19T13:59:26;51.80;;;22.73;;
17145;SDS011;8688;54.444;18.444;2023-11-19T14:01:55;59.27;;;24.33;;
17145;SDS011;8688;54.444;18.444;2023-11-19T14:04:25;49.63;;;21.07;;
17145;SDS011;8688;54.444;18.444;2023-11-19T14:06:53;49.50;;;22.13;;
17145;SDS011;8688;54.444;18.444;2023-11-19T14:09:22;53.80;;;22.73;;
17145;SDS011;8688;54.444;18.444;2023-11-19T14:11:51;51.23;;;21.93;;
17145;SDS011;8688;54.444;18.444;2023-11-19T14:14:20;49.90;;;20.47;;
17145;SDS011;8688;54.444;18.444;2023-11-19T14:16:49;58.77;;;24.03;;
17145;SDS011;8688;54.444;18.444;2023-11-19T14:19:17;58.57;;;24.17;;
17145;SDS011;8688;54.444;18.444;2023-11-19T14:21:45;54.47;;;24.13;;
17145;SDS011;8688;54.444;18.444;2023-11-19T14:24:13;54.27;;;23.77;;
17145;SDS011;8688;54.444;18.444;2023-11-19T14:26:41;48.27;;;19.53;;
17145;SDS011;8688;54.444;18.444;2023-11-19T14:29:13;57.77;;;25.10;;
17145;SDS011;8688;54.444;18.444;2023-11-19T14:31:42;53.47;;;22.87;;
17145;SDS011;8688;54.444;18.444;2023-11-19T14:34:10;53.27;;;23.57;;
17145;SDS011;8688;54.444;18.444;2023-11-19T14:36:38;54.57;;;22.50;;
17145;SDS011;8688;54.444;18.444;2023-11-19T14:39:06;61.23;;;24.87;;
17145;SDS011;8688;54.444;18.444;2023-11-19T14:41:34;74.30;;;34.47;;
17145;SDS011;8688;54.444;18.444;2023-11-19T14:44:02;108.47;;;42.50;;
17145;SDS011;8688;54.444;18.444;2023-11-19T14:46:30;71.13;;;29.73;;
17145;SDS011;8688;54.444;18.444;2023-11-19T14:49:00;55.90;;;25.80;;